Time;durP1;ratioP1;P1;durP2;ratioP2;P2;SDS_P1;SDS_P2;PMS_P1;PMS_P2;Temp;Humidity;BMP_temperature;BMP_pressure;BME280_temperature;BME280_humidity;BME280_pressure;Samples;Min_cycle;Max_cycle;Signal;HPM_P1;HPM_P2
2021/12/31 00:01:13;;;;;;;1.77;0.50;;;20.00;52.60;;;;;;5047996;28;20049;-86
2021/12/31 00:03:41;;;;;;;1.73;0.28;;;20.00;52.60;;;;;;5046207;28;20156;-86
2021/12/31 00:06:06;;;;;;;1.10;0.40;;;20.00;52.60;;;;;;5068823;28;20129;-86
2021/12/31 00:08:32;;;;;;;2.00;0.45;;;20.40;52.90;;;;;;5069063;28;20463;-86
2021/12/31 00:10:59;;;;;;;2.80;0.40;;;21.70;53.60;;;;;;5057749;28;20056;-86
2021/12/31 00:13:28;;;;;;;1.92;0.50;;;20.00;52.70;;;;;;5058412;28;20057;-86
2021/12/31 00:15:54;;;;;;;3.03;0.85;;;19.90;52.70;;;;;;5069025;28;20094;-86
2021/12/31 00:18:20;;;;;;;3.10;0.45;;;19.90;52.70;;;;;;5067989;28;20073;-86
2021/12/31 00:20:45;;;;;;;1.73;0.50;;;19.90;52.80;;;;;;5068795;28;20105;-86
2021/12/31 00:23:13;;;;;;;1.60;0.40;;;19.90;52.70;;;;;;5068470;28;20052;-86
2021/12/31 00:25:42;;;;;;;1.55;0.28;;;19.90;52.80;;;;;;5067665;28;20060;-87
2021/12/31 00:28:09;;;;;;;2.40;0.43;;;19.90;52.80;;;;;;5068601;28;20040;-86
2021/12/31 00:30:35;;;;;;;2.20;0.50;;;19.90;52.80;;;;;;5068254;28;20048;-86
2021/12/31 00:33:01;;;;;;;2.47;0.43;;;19.90;52.80;;;;;;4721223;28;10000632;-87
2021/12/31 00:35:28;;;;;;;2.35;0.40;;;19.90;52.90;;;;;;5068376;28;20057;-85
2021/12/31 00:37:53;;;;;;;0.95;0.35;;;21.40;53.70;;;;;;5068254;28;20057;-85
2021/12/31 00:40:19;;;;;;;1.77;0.30;;;19.90;52.90;;;;;;5067699;28;20472;-86
2021/12/31 00:42:45;;;;;;;1.90;0.30;;;19.90;52.90;;;;;;5068638;28;20149;-86
2021/12/31 00:45:12;;;;;;;2.05;0.43;;;19.80;52.90;;;;;;5068160;28;20566;-85
2021/12/31 00:47:37;;;;;;;1.45;0.40;;;19.80;53.00;;;;;;5036697;28;20044;-86
2021/12/31 00:50:03;;;;;;;1.48;0.40;;;19.80;52.90;;;;;;5051795;28;20058;-85
2021/12/31 00:52:28;;;;;;;1.73;0.40;;;19.80;53.00;;;;;;5034456;28;20093;-86
2021/12/31 00:54:54;;;;;;;1.60;0.40;;;19.80;53.00;;;;;;5051007;28;20048;-86
2021/12/31 00:57:20;;;;;;;1.85;0.30;;;20.50;53.40;;;;;;5039144;28;20060;-84
2021/12/31 00:59:46;;;;;;;1.83;0.40;;;19.80;53.00;;;;;;5047621;28;20060;-86
2021/12/31 01:02:12;;;;;;;3.53;0.52;;;19.80;53.00;;;;;;5031532;28;20048;-85
2021/12/31 01:04:38;;;;;;;1.75;0.40;;;19.70;53.00;;;;;;5031694;28;20562;-86
2021/12/31 01:07:03;;;;;;;1.85;0.43;;;19.80;53.00;;;;;;5047064;28;20048;-85
2021/12/31 01:09:29;;;;;;;1.77;0.40;;;19.80;53.00;;;;;;5048025;28;20175;-86
2021/12/31 01:11:56;;;;;;;1.25;0.40;;;19.70;53.00;;;;;;5048137;28;20049;-86
2021/12/31 01:16:51;;;;;;;1.13;0.32;;;19.70;53.00;;;;;;5031451;28;20057;-85
2021/12/31 01:21:42;;;;;;;0.82;0.30;;;20.90;53.70;;;;;;5047825;28;20101;-86
2021/12/31 01:24:08;;;;;;;2.10;0.40;;;19.70;53.10;;;;;;5075181;28;20051;-86
2021/12/31 01:26:33;;;;;;;0.60;0.20;;;20.90;53.70;;;;;;5066694;28;20167;-86
2021/12/31 01:28:59;;;;;;;1.70;0.40;;;19.70;53.20;;;;;;5072617;28;20055;-87
2021/12/31 01:31:25;;;;;;;2.20;0.30;;;21.70;54.20;;;;;;5077659;28;20063;-86
2021/12/31 01:33:51;;;;;;;1.27;0.38;;;19.70;53.20;;;;;;5063234;28;20048;-86
2021/12/31 01:36:17;;;;;;;1.65;0.43;;;20.80;53.80;;;;;;5074343;28;20048;-86
2021/12/31 01:38:44;;;;;;;1.00;0.40;;;19.60;53.20;;;;;;5075067;28;20496;-86
2021/12/31 01:41:10;;;;;;;0.98;0.22;;;19.60;53.20;;;;;;5058521;28;20055;-86
2021/12/31 01:43:36;;;;;;;2.10;0.63;;;19.90;53.40;;;;;;5074330;28;20051;-86
2021/12/31 01:46:10;;;;;;;1.45;0.40;;;19.60;53.30;;;;;;5075118;28;20059;-86
2021/12/31 01:48:48;;;;;;;2.63;0.40;;;19.60;53.20;;;;;;5074465;28;20155;-87
2021/12/31 01:51:14;;;;;;;1.27;0.25;;;19.60;53.30;;;;;;5074750;28;20078;-86
2021/12/31 01:53:39;;;;;;;1.77;0.47;;;19.60;53.30;;;;;;5074891;28;20703;-86
2021/12/31 01:56:05;;;;;;;1.10;0.40;;;19.60;53.30;;;;;;5073928;28;20523;-86
2021/12/31 01:58:30;;;;;;;2.38;0.63;;;19.60;53.30;;;;;;5074916;28;20407;-86
2021/12/31 02:00:58;;;;;;;0.68;0.30;;;19.60;53.30;;;;;;5057971;28;20483;-86
2021/12/31 02:03:24;;;;;;;0.95;0.30;;;19.60;53.30;;;;;;5073946;28;20056;-85
2021/12/31 02:05:49;;;;;;;1.50;0.30;;;19.60;53.40;;;;;;5057874;28;20044;-86
2021/12/31 02:08:16;;;;;;;1.48;0.55;;;19.60;53.40;;;;;;5074517;28;20036;-85
2021/12/31 02:10:41;;;;;;;1.88;0.40;;;19.60;53.40;;;;;;5073633;28;20081;-85
2021/12/31 02:13:08;;;;;;;1.25;0.38;;;19.60;53.40;;;;;;5074061;28;20125;-85
2021/12/31 02:15:34;;;;;;;1.63;0.40;;;19.50;53.30;;;;;;5057557;28;20130;-85
2021/12/31 02:18:00;;;;;;;0.75;0.35;;;20.10;53.70;;;;;;5018001;28;20163;-85
2021/12/31 02:20:37;;;;;;;1.27;0.40;;;19.50;53.40;;;;;;5032765;28;20063;-85
2021/12/31 02:23:08;;;;;;;3.58;0.57;;;19.50;53.40;;;;;;5050571;28;20654;-85
2021/12/31 02:25:37;;;;;;;1.15;0.25;;;19.50;53.40;;;;;;5050279;28;20044;-85
2021/12/31 02:28:03;;;;;;;1.20;0.38;;;19.50;53.40;;;;;;5050835;28;20700;-85
2021/12/31 02:30:29;;;;;;;1.05;0.40;;;19.50;53.50;;;;;;5049507;28;20040;-85
2021/12/31 02:32:55;;;;;;;2.47;0.77;;;19.50;53.50;;;;;;5040367;28;20622;-86
2021/12/31 02:35:21;;;;;;;1.38;0.30;;;19.50;53.50;;;;;;5050789;28;20488;-86
2021/12/31 02:37:46;;;;;;;2.00;0.50;;;20.30;53.90;;;;;;5049510;28;20055;-86
2021/12/31 02:40:14;;;;;;;1.52;0.40;;;19.50;53.50;;;;;;5050280;28;20049;-85
2021/12/31 02:42:40;;;;;;;5.60;0.57;;;19.50;53.50;;;;;;5050419;28;20049;-85
2021/12/31 02:45:07;;;;;;;1.70;0.45;;;19.50;53.50;;;;;;5049892;28;20122;-86
2021/12/31 02:47:33;;;;;;;1.00;0.30;;;19.50;53.60;;;;;;5050193;28;20497;-85
2021/12/31 02:50:02;;;;;;;2.63;0.50;;;19.50;53.60;;;;;;5050399;28;20049;-86
2021/12/31 02:52:28;;;;;;;1.67;0.40;;;19.50;53.60;;;;;;5049529;28;20032;-85
2021/12/31 02:54:55;;;;;;;1.80;0.50;;;19.40;53.60;;;;;;5039429;28;479440;-85
2021/12/31 02:57:21;;;;;;;1.23;0.32;;;19.50;53.60;;;;;;5040552;28;20447;-86
2021/12/31 02:59:47;;;;;;;0.90;0.50;;;19.40;53.60;;;;;;5072946;28;20767;-86
2021/12/31 03:02:12;;;;;;;2.30;0.47;;;20.30;54.10;;;;;;5046381;28;20078;-85
2021/12/31 03:04:38;;;;;;;2.22;0.40;;;19.40;53.60;;;;;;5057008;28;20083;-86
2021/12/31 03:07:05;;;;;;;2.00;0.47;;;19.40;53.70;;;;;;5072706;28;20046;-86
2021/12/31 03:09:31;;;;;;;1.42;0.40;;;19.40;53.60;;;;;;5073457;28;20040;-85
2021/12/31 03:11:57;;;;;;;1.67;0.40;;;19.40;53.60;;;;;;5056352;28;20040;-86
2021/12/31 03:14:23;;;;;;;1.25;0.32;;;19.30;53.60;;;;;;5039236;28;20456;-86
2021/12/31 03:16:48;;;;;;;2.33;0.52;;;19.40;53.70;;;;;;5056530;28;20044;-87
2021/12/31 03:19:14;;;;;;;2.10;0.40;;;19.40;53.70;;;;;;5056327;28;20829;-87
2021/12/31 03:21:39;;;;;;;1.33;0.35;;;19.40;53.70;;;;;;5055107;28;20101;-85
2021/12/31 03:24:05;;;;;;;1.50;0.50;;;19.40;53.70;;;;;;5071948;28;20044;-85
2021/12/31 03:26:31;;;;;;;1.33;0.40;;;19.60;53.90;;;;;;5054529;28;20048;-85
2021/12/31 03:28:57;;;;;;;2.13;0.50;;;19.30;53.70;;;;;;5070941;28;20040;-85
2021/12/31 03:31:23;;;;;;;1.98;0.40;;;19.30;53.70;;;;;;5055429;28;20461;-85
2021/12/31 03:33:48;;;;;;;1.63;0.40;;;19.30;53.80;;;;;;5071966;28;20048;-86
2021/12/31 03:36:14;;;;;;;1.70;0.40;;;19.30;53.80;;;;;;5053705;28;20729;-86
2021/12/31 03:38:39;;;;;;;0.63;0.35;;;19.30;53.80;;;;;;5071830;28;20782;-85
2021/12/31 03:41:05;;;;;;;2.22;0.50;;;19.30;53.80;;;;;;5070718;28;20052;-85
2021/12/31 03:43:31;;;;;;;1.27;0.40;;;19.30;53.80;;;;;;5063758;28;20492;-85
2021/12/31 03:45:56;;;;;;;1.58;0.47;;;19.30;53.80;;;;;;5048131;28;20080;-85
2021/12/31 03:48:22;;;;;;;2.03;0.40;;;19.30;53.80;;;;;;5047684;28;20804;-84
2021/12/31 03:50:47;;;;;;;0.93;0.40;;;19.30;53.80;;;;;;5048181;28;20095;-85
2021/12/31 03:53:14;;;;;;;1.30;0.40;;;19.30;53.80;;;;;;5048125;28;20519;-85
2021/12/31 03:55:40;;;;;;;1.33;0.40;;;19.30;53.80;;;;;;5047263;28;20080;-86
2021/12/31 03:58:06;;;;;;;1.42;0.40;;;19.30;53.90;;;;;;5048031;28;20084;-85
2021/12/31 04:00:31;;;;;;;1.10;0.40;;;20.80;54.70;;;;;;5048301;28;20049;-85
2021/12/31 04:02:57;;;;;;;1.55;0.45;;;19.30;53.80;;;;;;5047027;28;20088;-85
2021/12/31 04:05:25;;;;;;;1.55;0.43;;;19.30;53.90;;;;;;5048164;28;20069;-85
2021/12/31 04:07:52;;;;;;;2.63;0.60;;;19.30;53.90;;;;;;5048134;28;20044;-85
2021/12/31 04:10:17;;;;;;;1.17;0.40;;;19.30;53.90;;;;;;5047001;28;20041;-85
2021/12/31 04:12:43;;;;;;;1.90;0.40;;;19.30;53.90;;;;;;5047978;28;20057;-85
2021/12/31 04:15:09;;;;;;;1.70;0.57;;;19.30;54.00;;;;;;5047649;28;20033;-85
2021/12/31 04:17:34;;;;;;;1.42;0.43;;;19.30;54.00;;;;;;5047020;28;20102;-85
2021/12/31 04:20:00;;;;;;;2.10;0.40;;;19.20;53.90;;;;;;5047931;28;20504;-85
2021/12/31 04:22:28;;;;;;;1.10;0.30;;;19.20;54.60;;;;;;5012025;28;1036876;-84
2021/12/31 04:24:54;;;;;;;1.05;0.38;;;19.30;54.00;;;;;;5047633;28;20045;-85
2021/12/31 04:27:20;;;;;;;3.53;0.70;;;19.20;54.00;;;;;;5048284;28;20045;-85
2021/12/31 04:29:51;;;;;;;2.40;0.70;;;19.20;54.00;;;;;;5048234;28;20116;-85
2021/12/31 04:32:20;;;;;;;0.82;0.30;;;19.20;54.00;;;;;;5037979;28;20710;-85
2021/12/31 04:34:46;;;;;;;1.60;0.40;;;19.20;54.00;;;;;;5031959;28;20605;-85
2021/12/31 04:37:12;;;;;;;1.63;0.68;;;19.20;54.00;;;;;;5031549;28;20132;-85
2021/12/31 04:39:37;;;;;;;1.33;0.40;;;19.20;54.00;;;;;;5048895;28;20087;-85
2021/12/31 04:42:03;;;;;;;0.93;0.40;;;19.20;54.00;;;;;;5031871;28;20059;-85
2021/12/31 04:44:29;;;;;;;1.65;0.45;;;19.20;54.80;;;;;;5030581;28;20068;-85
2021/12/31 04:46:54;;;;;;;1.15;0.50;;;19.20;54.10;;;;;;5031734;28;20143;-85
2021/12/31 04:49:20;;;;;;;1.38;0.40;;;19.20;54.10;;;;;;5031625;28;20052;-85
2021/12/31 04:51:45;;;;;;;2.17;0.47;;;19.20;54.10;;;;;;5030210;28;20485;-86
2021/12/31 04:54:15;;;;;;;1.67;0.30;;;19.20;54.30;;;;;;5030737;28;20069;-84
2021/12/31 04:56:42;;;;;;;1.50;0.40;;;19.20;54.20;;;;;;5031191;28;20661;-86
2021/12/31 04:59:09;;;;;;;1.88;0.43;;;19.20;54.10;;;;;;5030474;28;20068;-86
2021/12/31 05:01:35;;;;;;;1.08;0.45;;;19.20;54.10;;;;;;5031216;28;20136;-86
2021/12/31 05:04:00;;;;;;;1.33;0.40;;;19.20;54.20;;;;;;5030918;28;20043;-86
2021/12/31 05:06:26;;;;;;;1.90;0.50;;;19.20;54.20;;;;;;5030607;28;20049;-85
2021/12/31 05:08:51;;;;;;;3.40;0.60;;;19.20;54.20;;;;;;5031194;28;20041;-86
2021/12/31 05:11:17;;;;;;;1.65;0.50;;;19.20;54.20;;;;;;5031361;28;20401;-85
2021/12/31 05:13:42;;;;;;;0.95;0.40;;;19.10;54.20;;;;;;5030718;28;20072;-86
2021/12/31 05:16:08;;;;;;;1.45;0.38;;;19.10;54.10;;;;;;5031341;28;20048;-86
2021/12/31 05:18:33;;;;;;;1.10;0.30;;;19.10;54.10;;;;;;5031456;28;20057;-86
2021/12/31 05:20:59;;;;;;;1.83;0.57;;;19.10;54.20;;;;;;5037814;28;20863;-85
2021/12/31 05:23:24;;;;;;;2.05;0.52;;;19.10;54.30;;;;;;5050856;28;20067;-85
2021/12/31 05:25:50;;;;;;;0.85;0.40;;;19.10;54.30;;;;;;5051127;28;20040;-85
2021/12/31 05:28:16;;;;;;;0.75;0.30;;;19.10;54.30;;;;;;5050410;28;20136;-86
2021/12/31 05:30:41;;;;;;;1.23;0.35;;;19.10;54.20;;;;;;5035415;28;20067;-86
2021/12/31 05:33:07;;;;;;;0.73;0.35;;;19.10;54.20;;;;;;5030997;28;20155;-86
2021/12/31 05:35:32;;;;;;;0.93;0.22;;;19.10;54.20;;;;;;5030366;28;20052;-86
2021/12/31 05:37:58;;;;;;;1.42;0.30;;;19.30;54.30;;;;;;5030710;28;20049;-85
2021/12/31 05:40:25;;;;;;;0.82;0.30;;;19.10;54.20;;;;;;5031098;28;20041;-85
2021/12/31 05:42:50;;;;;;;1.73;0.30;;;19.20;54.30;;;;;;5030147;28;20124;-85
2021/12/31 05:45:16;;;;;;;0.65;0.30;;;19.20;54.30;;;;;;5030995;28;20518;-85
2021/12/31 05:47:41;;;;;;;1.40;0.32;;;19.20;54.30;;;;;;5030268;28;20052;-84
2021/12/31 05:50:18;;;;;;;1.67;0.43;;;20.70;55.20;;;;;;5030928;28;20040;-85
2021/12/31 05:52:43;;;;;;;1.25;0.35;;;19.30;54.40;;;;;;5030917;28;20110;-86
2021/12/31 05:55:09;;;;;;;1.77;0.28;;;19.20;54.40;;;;;;5030746;28;20657;-87
2021/12/31 05:57:34;;;;;;;1.13;0.30;;;19.30;54.40;;;;;;5031274;28;20515;-87
2021/12/31 06:00:00;;;;;;;1.85;0.43;;;19.30;54.50;;;;;;5031111;28;20051;-87
2021/12/31 06:02:26;;;;;;;1.10;0.35;;;19.30;54.50;;;;;;5031095;28;20068;-87
2021/12/31 06:04:51;;;;;;;1.20;0.30;;;19.40;54.60;;;;;;5033486;28;20044;-87
2021/12/31 06:07:17;;;;;;;1.45;0.40;;;19.40;54.50;;;;;;5034846;28;20036;-87
2021/12/31 06:09:42;;;;;;;1.02;0.20;;;19.50;54.50;;;;;;5034423;28;20144;-87
2021/12/31 06:12:08;;;;;;;0.93;0.30;;;19.50;54.50;;;;;;5034586;28;20400;-87
2021/12/31 06:14:33;;;;;;;0.60;0.28;;;19.50;54.40;;;;;;5034604;28;20447;-87
2021/12/31 06:17:07;;;;;;;1.33;0.38;;;19.50;54.40;;;;;;5017457;28;20049;-87
2021/12/31 06:19:33;;;;;;;0.90;0.20;;;19.60;54.40;;;;;;5019179;28;20044;-87
2021/12/31 06:21:59;;;;;;;0.95;0.30;;;19.60;54.30;;;;;;5034246;28;20061;-87
2021/12/31 06:24:24;;;;;;;1.08;0.30;;;19.60;54.30;;;;;;5017305;28;20041;-87
2021/12/31 06:26:50;;;;;;;1.52;0.40;;;19.60;54.20;;;;;;5034435;28;20045;-87
2021/12/31 06:29:16;;;;;;;0.90;0.22;;;20.90;54.90;;;;;;5034219;28;20056;-87
2021/12/31 06:31:41;;;;;;;1.08;0.40;;;19.60;54.20;;;;;;5038535;28;20045;-86
2021/12/31 06:34:07;;;;;;;0.70;0.40;;;20.90;54.80;;;;;;5028315;28;20136;-86
2021/12/31 06:36:32;;;;;;;2.20;0.50;;;19.70;54.10;;;;;;5033915;28;20822;-87
2021/12/31 06:39:01;;;;;;;1.00;0.20;;;21.70;55.20;;;;;;5032692;28;20041;-86
2021/12/31 06:41:27;;;;;;;1.20;0.20;;;19.70;54.10;;;;;;5032774;28;20088;-87
2021/12/31 06:43:52;;;;;;;0.82;0.30;;;19.80;54.10;;;;;;5033352;28;20449;-85
2021/12/31 06:46:20;;;;;;;0.93;0.30;;;19.70;54.00;;;;;;5044955;28;209352;-87
2021/12/31 06:48:46;;;;;;;1.23;0.30;;;19.80;54.10;;;;;;5044242;28;20113;-86
2021/12/31 06:51:11;;;;;;;0.65;0.30;;;19.80;54.00;;;;;;5069279;28;20105;-87
2021/12/31 06:53:37;;;;;;;0.85;0.20;;;20.20;54.30;;;;;;5070271;28;20492;-85
2021/12/31 06:56:03;;;;;;;1.30;0.20;;;19.80;54.00;;;;;;5068854;28;20056;-86
2021/12/31 06:58:28;;;;;;;0.63;0.20;;;19.80;54.00;;;;;;5062634;28;20098;-84
2021/12/31 07:00:54;;;;;;;0.75;0.20;;;19.90;54.10;;;;;;5040958;28;20591;-85
2021/12/31 07:03:19;;;;;;;1.00;0.28;;;19.90;54.00;;;;;;5049813;28;20045;-86
2021/12/31 07:05:45;;;;;;;0.82;0.40;;;19.90;54.00;;;;;;5046071;28;20052;-86
2021/12/31 07:08:11;;;;;;;1.48;0.40;;;19.90;54.00;;;;;;5058243;28;20060;-85
2021/12/31 07:10:36;;;;;;;1.08;0.30;;;21.70;54.90;;;;;;5069860;28;20141;-85
2021/12/31 07:13:10;;;;;;;0.70;0.22;;;20.00;54.00;;;;;;5069144;28;20060;-85
2021/12/31 07:15:48;;;;;;;0.68;0.20;;;20.00;54.00;;;;;;5068904;28;20052;-85
2021/12/31 07:18:14;;;;;;;0.60;0.30;;;20.00;53.90;;;;;;5069825;28;20049;-88
2021/12/31 07:20:39;;;;;;;0.95;0.20;;;20.00;53.90;;;;;;5072073;28;20055;-88
2021/12/31 07:23:06;;;;;;;1.08;0.30;;;20.00;53.80;;;;;;5069753;28;20052;-84
2021/12/31 07:25:32;;;;;;;1.70;0.35;;;20.10;53.90;;;;;;5069059;28;20056;-85
2021/12/31 07:27:58;;;;;;;1.08;0.45;;;20.10;53.90;;;;;;5069039;28;20036;-86
2021/12/31 07:30:23;;;;;;;0.75;0.25;;;20.10;53.80;;;;;;5069460;28;20052;-85
2021/12/31 07:32:49;;;;;;;0.65;0.30;;;20.10;53.80;;;;;;5069072;28;20036;-85
2021/12/31 07:35:14;;;;;;;0.90;0.30;;;20.10;53.80;;;;;;5086282;28;20047;-85
2021/12/31 07:37:40;;;;;;;1.40;0.40;;;20.10;53.70;;;;;;5069395;28;20127;-85
2021/12/31 07:40:07;;;;;;;1.33;0.30;;;20.20;53.70;;;;;;5069396;28;20044;-84
2021/12/31 07:42:32;;;;;;;1.23;0.45;;;20.20;53.80;;;;;;5067807;28;20082;-85
2021/12/31 07:44:58;;;;;;;1.67;0.30;;;20.10;53.60;;;;;;5069033;28;20174;-85
2021/12/31 07:47:23;;;;;;;1.35;0.30;;;20.20;53.60;;;;;;5068459;28;20052;-84
2021/12/31 07:49:49;;;;;;;1.00;0.30;;;20.20;53.60;;;;;;5069050;28;20507;-85
2021/12/31 07:52:14;;;;;;;0.85;0.30;;;20.20;53.60;;;;;;5067231;28;20041;-84
2021/12/31 07:54:40;;;;;;;1.48;0.30;;;20.20;53.60;;;;;;5069215;28;20508;-84
2021/12/31 07:57:05;;;;;;;1.33;0.20;;;20.20;53.50;;;;;;5069466;28;20054;-85
2021/12/31 07:59:32;;;;;;;0.50;0.20;;;20.20;53.50;;;;;;5066672;28;20094;-85
2021/12/31 08:01:57;;;;;;;0.80;0.30;;;20.20;53.50;;;;;;5068022;28;20047;-85
2021/12/31 08:04:23;;;;;;;1.15;0.20;;;20.20;53.50;;;;;;5065942;28;20435;-84
2021/12/31 08:06:49;;;;;;;1.00;0.30;;;20.20;53.50;;;;;;5067581;28;20139;-84
2021/12/31 08:09:14;;;;;;;1.00;0.30;;;20.20;53.50;;;;;;5067151;28;20048;-84
2021/12/31 08:11:41;;;;;;;1.00;0.30;;;20.20;53.40;;;;;;5067654;28;20405;-85
2021/12/31 08:14:06;;;;;;;0.50;0.20;;;20.20;53.40;;;;;;5068224;28;20059;-84
2021/12/31 08:16:32;;;;;;;0.75;0.45;;;20.20;53.40;;;;;;5067628;28;20049;-84
2021/12/31 08:18:57;;;;;;;1.45;0.30;;;20.20;53.40;;;;;;5067928;28;20392;-85
2021/12/31 08:21:23;;;;;;;0.95;0.38;;;20.20;53.40;;;;;;5068290;28;20056;-85
2021/12/31 08:23:48;;;;;;;0.88;0.30;;;20.20;53.50;;;;;;5067400;28;20041;-84
2021/12/31 08:26:14;;;;;;;1.30;0.30;;;20.20;53.40;;;;;;5064855;28;20170;-83
2021/12/31 08:28:40;;;;;;;0.98;0.40;;;20.20;53.40;;;;;;5066968;28;20032;-84
2021/12/31 08:31:06;;;;;;;2.53;0.45;;;20.20;53.40;;;;;;5067127;28;20469;-84
2021/12/31 08:33:31;;;;;;;1.00;0.30;;;20.10;53.30;;;;;;5067540;28;20043;-85
2021/12/31 08:35:57;;;;;;;1.38;0.32;;;20.20;53.40;;;;;;5068594;28;20538;-86
2021/12/31 08:38:23;;;;;;;1.58;0.38;;;20.10;53.30;;;;;;5067705;28;20045;-83
2021/12/31 08:40:49;;;;;;;2.10;0.35;;;21.10;53.90;;;;;;5068335;28;20055;-83
2021/12/31 08:43:14;;;;;;;0.63;0.30;;;20.10;53.40;;;;;;5068124;28;20033;-82
2021/12/31 08:45:40;;;;;;;1.33;0.40;;;20.10;53.30;;;;;;5067335;28;20044;-82
2021/12/31 08:48:05;;;;;;;1.55;0.43;;;20.10;53.30;;;;;;5068207;28;20051;-80
2021/12/31 08:50:31;;;;;;;4.30;0.57;;;20.10;53.40;;;;;;5066893;28;20041;-87
2021/12/31 08:52:57;;;;;;;1.35;0.32;;;20.10;53.60;;;;;;5068014;28;20032;-83
2021/12/31 08:55:22;;;;;;;1.80;0.38;;;20.90;53.90;;;;;;5034313;28;20049;-82
2021/12/31 08:57:48;;;;;;;2.63;0.50;;;20.10;53.50;;;;;;5030470;28;20084;-80
2021/12/31 09:00:14;;;;;;;1.23;0.30;;;20.10;53.50;;;;;;5031723;28;20099;-81
2021/12/31 09:02:40;;;;;;;1.45;0.40;;;20.10;53.50;;;;;;5049694;28;20063;-81
2021/12/31 09:05:06;;;;;;;1.75;0.40;;;21.20;54.10;;;;;;5067308;28;20047;-82
2021/12/31 09:07:32;;;;;;;1.20;0.40;;;20.10;53.50;;;;;;5071068;28;20092;-81
2021/12/31 09:09:58;;;;;;;3.20;0.40;;;20.10;53.50;;;;;;5039439;28;20087;-83
2021/12/31 09:12:27;;;;;;;1.60;0.40;;;20.10;53.40;;;;;;5048708;28;20593;-84
2021/12/31 09:14:52;;;;;;;1.90;0.50;;;20.10;53.40;;;;;;5051432;28;20067;-84
2021/12/31 09:17:18;;;;;;;2.42;0.43;;;20.10;53.40;;;;;;5050963;28;20136;-83
2021/12/31 09:19:43;;;;;;;2.33;0.40;;;20.10;53.50;;;;;;5050071;28;20087;-84
2021/12/31 09:22:09;;;;;;;0.82;0.30;;;20.10;53.50;;;;;;5050866;28;20057;-83
2021/12/31 09:24:35;;;;;;;0.98;0.30;;;20.10;53.50;;;;;;5050904;28;20143;-83
2021/12/31 09:27:00;;;;;;;1.40;0.40;;;20.10;53.50;;;;;;5050469;28;20060;-83
2021/12/31 09:29:26;;;;;;;1.42;0.35;;;20.10;53.50;;;;;;5050744;28;20045;-83
2021/12/31 09:31:52;;;;;;;1.98;0.50;;;20.10;53.60;;;;;;5047436;28;20067;-82
2021/12/31 09:34:17;;;;;;;1.67;0.30;;;20.10;53.50;;;;;;5066332;28;20127;-83
2021/12/31 09:36:43;;;;;;;2.70;0.63;;;20.10;53.50;;;;;;5065946;28;20088;-83
2021/12/31 09:39:09;;;;;;;2.10;0.40;;;20.50;53.80;;;;;;5068542;28;20051;-83
2021/12/31 09:41:34;;;;;;;1.30;0.22;;;20.10;53.60;;;;;;5070587;28;20048;-83
2021/12/31 09:44:00;;;;;;;1.50;0.40;;;20.10;53.50;;;;;;5071216;28;20040;-83
2021/12/31 09:46:25;;;;;;;2.60;0.60;;;20.10;53.50;;;;;;5055246;28;20113;-83
2021/12/31 09:48:51;;;;;;;3.55;0.38;;;20.10;53.50;;;;;;5052834;28;20056;-83
2021/12/31 09:51:17;;;;;;;0.80;0.32;;;20.10;53.50;;;;;;5070536;28;20127;-83
2021/12/31 09:53:42;;;;;;;1.35;0.30;;;20.10;53.50;;;;;;5068823;28;20043;-83
2021/12/31 09:56:08;;;;;;;2.28;0.63;;;20.10;53.60;;;;;;5068233;28;20071;-83
2021/12/31 09:58:35;;;;;;;1.25;0.35;;;20.20;53.50;;;;;;5070363;28;20045;-83
2021/12/31 10:01:01;;;;;;;1.30;0.35;;;20.10;53.50;;;;;;5070645;28;20040;-84
2021/12/31 10:03:29;;;;;;;1.33;0.35;;;18.50;52.70;;;;;;5076957;28;20051;-78
2021/12/31 10:06:15;;;;;;;1.58;0.47;;;20.10;53.50;;;;;;5052263;28;20048;-76
2021/12/31 10:08:45;;;;;;;3.13;0.43;;;20.20;53.50;;;;;;5055395;28;20052;-79
2021/12/31 10:11:17;;;;;;;2.60;0.40;;;20.10;53.70;;;;;;5056622;28;20511;-81
2021/12/31 10:13:45;;;;;;;2.22;0.40;;;20.10;53.80;;;;;;5070188;28;20090;-79
2021/12/31 10:16:39;;;;;;;3.70;0.52;;;20.10;54.10;;;;;;5062646;28;20043;-80
2021/12/31 10:19:15;;;;;;;3.80;0.60;;;20.20;54.30;;;;;;5069846;28;20342;-79
2021/12/31 10:21:50;;;;;;;2.83;0.50;;;20.10;54.30;;;;;;5063708;28;20040;-79
2021/12/31 10:24:22;;;;;;;3.00;0.60;;;20.30;54.50;;;;;;5052182;28;20485;-88
2021/12/31 10:26:48;;;;;;;2.58;0.40;;;20.10;54.40;;;;;;5061765;28;20412;-83
2021/12/31 10:29:14;;;;;;;4.00;0.65;;;20.10;54.40;;;;;;5069096;28;20064;-80
2021/12/31 10:31:43;;;;;;;2.22;0.40;;;20.80;54.80;;;;;;5069728;28;20068;-83
2021/12/31 10:34:25;;;;;;;2.13;0.55;;;20.10;55.10;;;;;;5069897;28;20044;-84
2021/12/31 10:36:50;;;;;;;2.17;0.50;;;20.10;54.50;;;;;;5067192;28;20048;-85
2021/12/31 10:39:26;;;;;;;7.85;1.08;;;20.20;54.60;;;;;;5069640;28;20167;-80
2021/12/31 10:42:11;;;;;;;3.40;0.50;;;20.20;54.90;;;;;;5065203;28;20726;-80
2021/12/31 10:44:50;;;;;;;3.15;0.80;;;20.20;55.20;;;;;;5068904;28;20143;-83
2021/12/31 10:47:28;;;;;;;3.38;0.73;;;20.20;55.10;;;;;;5070075;28;20423;-83
2021/12/31 10:50:00;;;;;;;5.00;0.50;;;20.20;54.70;;;;;;5068344;28;20447;-83
2021/12/31 10:52:38;;;;;;;3.25;0.70;;;20.20;54.60;;;;;;5067558;28;20389;-83
2021/12/31 10:58:03;;;;;;;2.13;0.50;;;20.30;54.40;;;;;;5066389;28;20512;-83
2021/12/31 11:00:37;;;;;;;0.95;0.38;;;20.30;54.30;;;;;;5070240;28;20058;-82
2021/12/31 11:03:03;;;;;;;2.25;0.50;;;21.10;54.70;;;;;;5070211;28;20127;-82
2021/12/31 11:05:28;;;;;;;1.15;0.40;;;21.60;54.90;;;;;;5052246;28;20610;-83
2021/12/31 11:07:58;;;;;;;1.77;0.45;;;20.30;54.80;;;;;;5051120;28;20159;-84
2021/12/31 11:10:26;;;;;;;3.38;0.50;;;21.10;54.50;;;;;;5048776;28;20098;-84
2021/12/31 11:12:52;;;;;;;2.80;0.60;;;20.30;54.00;;;;;;5061022;28;20052;-83
2021/12/31 11:15:17;;;;;;;1.98;0.50;;;20.30;54.00;;;;;;5069563;28;20043;-83
2021/12/31 11:17:43;;;;;;;1.73;0.50;;;20.90;54.30;;;;;;5068113;28;20044;-83
2021/12/31 11:20:09;;;;;;;2.17;0.50;;;20.40;53.90;;;;;;5082532;28;20178;-82
2021/12/31 11:22:35;;;;;;;1.95;0.52;;;20.40;53.90;;;;;;5052512;28;20057;-82
2021/12/31 11:25:25;;;;;;;2.90;0.82;;;20.40;53.90;;;;;;5069491;28;20049;-83
2021/12/31 11:27:52;;;;;;;3.00;0.60;;;20.30;53.80;;;;;;5085723;28;20722;-82
2021/12/31 11:30:38;;;;;;;2.13;0.50;;;20.40;53.80;;;;;;5069610;28;20044;-83
2021/12/31 11:33:15;;;;;;;2.45;0.50;;;20.30;53.80;;;;;;5066532;28;20053;-83
2021/12/31 11:35:46;;;;;;;1.58;0.40;;;20.30;53.70;;;;;;5069605;28;20071;-83
2021/12/31 11:38:37;;;;;;;0.75;0.40;;;20.30;53.70;;;;;;5066716;28;20077;-83
2021/12/31 11:41:07;;;;;;;0.93;0.35;;;20.40;54.50;;;;;;5082202;28;20060;-83
2021/12/31 11:43:34;;;;;;;2.60;0.40;;;20.40;53.70;;;;;;5068582;28;20131;-83
2021/12/31 11:46:21;;;;;;;2.08;0.40;;;20.40;53.70;;;;;;5056432;28;20074;-84
2021/12/31 11:48:51;;;;;;;1.85;0.40;;;20.30;53.60;;;;;;5068909;28;20506;-83
2021/12/31 11:51:29;;;;;;;2.80;0.70;;;20.30;53.60;;;;;;5068791;28;20063;-80
2021/12/31 11:54:00;;;;;;;3.60;0.82;;;20.30;53.70;;;;;;5068756;28;20475;-82
2021/12/31 11:56:34;;;;;;;2.85;0.70;;;20.30;53.90;;;;;;5068713;28;20056;-83
2021/12/31 11:59:09;;;;;;;6.68;0.85;;;20.30;54.00;;;;;;5068872;28;20064;-83
2021/12/31 12:01:43;;;;;;;2.67;0.70;;;20.20;54.00;;;;;;5067900;28;20045;-83
2021/12/31 12:04:27;;;;;;;1.88;0.60;;;20.20;54.00;;;;;;4889253;28;5085799;-83
2021/12/31 12:06:56;;;;;;;1.50;0.50;;;20.20;54.00;;;;;;5064476;28;20040;-82
2021/12/31 12:09:37;;;;;;;3.35;0.60;;;20.80;54.40;;;;;;5067630;28;20048;-82
2021/12/31 12:12:13;;;;;;;2.45;0.55;;;20.10;54.10;;;;;;5067985;28;20078;-83
2021/12/31 12:14:40;;;;;;;2.10;0.60;;;20.10;54.10;;;;;;5065939;28;20066;-83
2021/12/31 12:17:07;;;;;;;1.65;0.60;;;20.10;54.10;;;;;;5066928;28;20048;-83
2021/12/31 12:20:01;;;;;;;3.63;0.73;;;20.10;54.20;;;;;;5066218;28;20044;-83
2021/12/31 12:22:28;;;;;;;1.65;0.50;;;20.10;54.20;;;;;;4717195;28;10000615;-83
2021/12/31 12:24:56;;;;;;;4.03;0.68;;;20.00;54.20;;;;;;5068294;28;20044;-83
2021/12/31 12:27:22;;;;;;;1.88;0.75;;;20.00;54.20;;;;;;5068473;28;20048;-83
2021/12/31 12:29:48;;;;;;;2.08;0.85;;;20.00;54.20;;;;;;5067371;28;20048;-83
2021/12/31 12:32:15;;;;;;;2.35;0.60;;;20.00;54.20;;;;;;5068166;28;20075;-83
2021/12/31 12:34:40;;;;;;;3.50;1.10;;;20.00;54.30;;;;;;5053599;28;20053;-83
2021/12/31 12:37:06;;;;;;;1.90;0.65;;;20.00;54.40;;;;;;5050615;28;20052;-84
2021/12/31 12:39:32;;;;;;;2.08;0.70;;;20.00;54.30;;;;;;5051326;28;20048;-84
2021/12/31 12:41:57;;;;;;;2.60;0.68;;;20.00;54.30;;;;;;5046785;28;20067;-85
2021/12/31 12:44:23;;;;;;;1.55;0.57;;;20.00;54.40;;;;;;5056504;28;20043;-85
2021/12/31 12:46:53;;;;;;;1.23;0.60;;;20.00;54.60;;;;;;5020059;28;20488;-85
2021/12/31 12:49:18;;;;;;;2.22;0.88;;;19.90;54.30;;;;;;5031469;28;20078;-85
2021/12/31 12:51:44;;;;;;;1.75;0.60;;;20.70;54.80;;;;;;5031462;28;20852;-86
2021/12/31 12:54:13;;;;;;;1.17;0.40;;;20.90;54.90;;;;;;5031813;28;20125;-86